Wales, Alaska
Current Conditions -  °F | °C
As of 8:20 AM on Friday 24 Oct 2014 (Local Time) from PAIW Reporting Station
Broken Clouds Broken Clouds  
Wind Chill: 25°   Ceiling: 3700
Heat Index: 36°   Visibility: 9mi
Dew Point: 34°   Wind: 21mph
Humidity: 93%   Direction: 180°S
Pressure: 29.62"   Gusts: NA
Location:  65.62°N, 168.08°W
Report Text: PAIW 241620Z AUTO 18018KT 9SM SCT018 BKN037 BKN090 02/01 A2962 RMK AO2 FZRANO
Loading
Personal Weather Stations






























Interactive Weather Map
Tropical Storm Tracking
New forecast layout! Learn more

10-Day Weather Forecast

Advertisements
Track Severe Weather on mobile